Latest Weather Observations for Frederick Reef

IDQ60801

Issued at 7:05 am EST Friday 1 August 2014 (issued every 30 minutes, with the page automatically refreshed every 10 minutes)

About weather observations | Map of weather stations | Latest weather observations for QLD | Other Formats
Station Details ID: 200701 Name: FREDERICK REEF Lat: -20.94 Lon: 154.40 Height: 4.9 m
Data from the previous 72 hours. | See also: Recent months for locations in Queensland
Date/Time
EST
Temp
°C
App
Temp
°C
Dew
Point
Rel
Hum
%
Delta-T
°C
Wind Press
QNH
hPa
Press
MSL
hPa
Rain
since 9 am
mm
Dir
 
Spd
km/h
Gust
km/h
Spd
kts
Gust
kts
01/07:00am 22.5 - - - - ENE 15 19 8 10 1018.0 - -
01/06:30am 22.6 - - - - ENE 17 19 9 10 1017.7 - -
01/06:00am 22.4 - - - - NE 17 20 9 11 1017.5 1017.5 -
01/05:30am 22.3 - - - - NE 17 20 9 11 1017.0 - -
01/05:00am 22.1 - - - - NNE 15 19 8 10 1016.9 - -
01/04:30am 22.1 - - - - NE 20 22 11 12 1016.3 - -
01/04:00am 22.5 - - - - NE 24 28 13 15 1016.4 - -
01/03:30am 22.1 - - - - ENE 28 30 15 16 1016.4 - -
01/03:00am 22.1 - - - - NE 24 26 13 14 1016.9 - -
01/02:30am 22.0 - - - - NE 24 28 13 15 1017.0 - -
01/02:00am 22.2 - - - - NE 24 28 13 15 1017.4 - -
01/01:30am 22.2 - - - - ENE 24 26 13 14 1017.6 - -
01/01:00am 22.5 - - - - ENE 24 28 13 15 1017.8 - -
01/12:30am 22.5 - - - - ENE 30 33 16 18 1017.9 - -
01/12:00am 22.8 - - - - ENE 24 28 13 15 1018.3 - -
 
Date/Time
EST
Temp
°C
App
Temp
°C
Dew
Point
Rel
Hum
%
Delta-T
°C
Wind Press
QNH
hPa
Press
MSL
hPa
Rain
since 9 am
mm
Dir
 
Spd
km/h
Gust
km/h
Spd
kts
Gust
kts
31/11:30pm 22.6 - - - - ENE 24 28 13 15 1018.3 - -
31/11:00pm 22.4 - - - - NE 26 30 14 16 1018.3 - -
31/10:30pm 22.3 - - - - ENE 26 30 14 16 1018.6 - -
31/10:00pm 22.5 - - - - ENE 24 28 13 15 1018.7 - -
31/09:30pm 22.3 - - - - ENE 24 30 13 16 1018.9 - -
31/09:00pm 22.2 - - - - ENE 26 30 14 16 1019.0 - -
31/08:00pm 22.0 - - - - E 26 30 14 16 1018.6 - -
31/07:30pm 22.0 - - - - ENE 22 26 12 14 1018.4 - -
31/06:30pm 21.6 - - - - ESE 17 19 9 10 1018.1 - -
31/06:00pm 19.7 - - - - E 19 24 10 13 1017.9 - -
31/05:30pm 19.8 - - - - E 24 28 13 15 1017.9 - -
31/05:00pm 20.2 - - - - SE 20 28 11 15 1017.7 - -
31/04:30pm 20.5 - - - - SSE 30 33 16 18 1017.4 - -
31/04:00pm 20.9 - - - - S 24 28 13 15 1017.3 - -
31/03:30pm 20.4 - - - - SSE 22 26 12 14 1017.3 - -
31/03:00pm 20.9 - - - - S 20 26 11 14 1017.2 1017.2 -
31/02:30pm 20.9 - - - - S 17 20 9 11 1017.2 - -
31/02:00pm 21.1 - - - - SSW 13 15 7 8 1017.6 - -
31/01:30pm 21.8 - - - - SSW 19 22 10 12 1017.7 - -
31/01:00pm 21.8 - - - - NNW 17 20 9 11 1018.1 - -
31/12:30pm 21.4 - - - - WNW 13 17 7 9 1018.8 - -
31/12:00pm 21.6 - - - - S 13 17 7 9 1019.1 1019.1 -
31/11:30am 21.9 - - - - N 11 15 6 8 1019.6 - -
31/11:00am 20.6 - - - - ENE 20 35 11 19 1020.0 - -
31/10:30am 20.8 - - - - NE 41 44 22 24 1019.9 - -
31/10:11am 22.1 - - - - NE 41 43 22 23 1019.8 - -
31/10:00am 22.5 - - - - NE 20 24 11 13 1020.1 - -
31/09:30am 21.3 - - - - N 30 33 16 18 1020.4 - -
31/09:00am 20.6 - - - - NNE 39 44 21 24 1020.3 1020.3 -
31/08:47am 20.8 - - - - NNE 39 43 21 23 1020.4 - -
31/08:30am 20.7 - - - - E 26 35 14 19 1020.4 - -
31/08:00am 22.5 - - - - ESE 20 26 11 14 1020.1 - -
31/07:30am 22.7 - - - - E 22 26 12 14 1019.8 - -
31/07:00am 22.6 - - - - E 28 32 15 17 1019.5 - -
31/06:30am 22.8 - - - - E 32 35 17 19 1019.4 - -
31/06:00am 22.5 - - - - E 35 41 19 22 1019.3 1019.3 -
31/05:30am 22.6 - - - - E 32 39 17 21 1019.1 - -
31/05:00am 22.6 - - - - E 26 32 14 17 1019.0 - -
31/04:30am 22.5 - - - - E 32 35 17 19 1018.8 - -
31/04:00am 22.6 - - - - E 30 35 16 19 1018.7 - -
31/03:30am 22.5 - - - - E 28 32 15 17 1018.7 - -
31/03:00am 22.4 - - - - E 32 35 17 19 1018.7 - -
31/02:30am 22.2 - - - - E 32 35 17 19 1018.8 - -
31/02:00am 22.4 - - - - ENE 32 35 17 19 1019.1 - -
31/01:30am 22.4 - - - - E 32 35 17 19 1019.2 - -
31/01:00am 22.5 - - - - ENE 32 37 17 20 1019.3 - -
31/12:30am 22.6 - - - - ENE 32 35 17 19 1019.6 - -
31/12:00am 22.7 - - - - E 35 39 19 21 1019.8 - -
 
Date/Time
EST
Temp
°C
App
Temp
°C
Dew
Point
Rel
Hum
%
Delta-T
°C
Wind Press
QNH
hPa
Press
MSL
hPa
Rain
since 9 am
mm
Dir
 
Spd
km/h
Gust
km/h
Spd
kts
Gust
kts
30/11:30pm 22.7 - - - - E 35 41 19 22 1019.8 - -
30/11:00pm 22.5 - - - - ENE 37 43 20 23 1020.0 - -
30/10:30pm 22.4 - - - - E 37 43 20 23 1020.3 - -
30/10:26pm 22.5 - - - - E 37 43 20 23 1020.4 - -
30/10:00pm 21.6 - - - - ESE 26 33 14 18 1020.7 - -
30/09:30pm 21.6 - - - - SE 32 35 17 19 1020.8 - -
30/09:00pm 21.7 - - - - SSE 32 35 17 19 1020.8 - -
30/08:30pm 21.6 - - - - SSE 33 41 18 22 1020.6 - -
30/08:00pm 21.7 - - - - SSE 33 39 18 21 1020.2 - -
30/07:30pm 21.9 - - - - SE 32 37 17 20 1020.1 - -
30/07:00pm 22.5 - - - - E 28 32 15 17 1019.8 - -
30/06:30pm 22.3 - - - - E 30 33 16 18 1019.7 - -
30/06:00pm 22.2 - - - - E 28 32 15 17 1019.4 - -
30/05:30pm 21.9 - - - - ESE 26 33 14 18 1019.3 - -
30/05:00pm 22.0 - - - - ESE 30 35 16 19 1019.2 - -
30/04:30pm 22.4 - - - - E 22 28 12 15 1018.9 - -
30/04:00pm 22.6 - - - - E 22 26 12 14 1018.9 - -
30/03:30pm 22.7 - - - - E 19 22 10 12 1018.9 - -
30/03:00pm 22.6 - - - - E 19 24 10 13 1018.8 - -
30/02:30pm 22.6 - - - - E 22 26 12 14 1019.0 - -
30/02:00pm 22.6 - - - - E 22 26 12 14 1019.3 - -
30/01:30pm 22.6 - - - - E 24 28 13 15 1019.5 - -
30/01:00pm 22.5 - - - - ESE 26 33 14 18 1020.0 - -
30/12:30pm 22.6 - - - - E 30 35 16 19 1020.4 - -
30/12:00pm 22.6 - - - - E 28 32 15 17 1020.9 - -
30/11:30am 22.6 - - - - E 30 35 16 19 1021.4 - -
30/11:00am 22.7 - - - - E 30 35 16 19 1021.8 - -
30/10:30am 22.7 - - - - E 28 33 15 18 1022.0 - -
30/10:00am 22.8 - - - - E 24 30 13 16 1022.3 - -
30/09:30am 22.9 - - - - E 22 28 12 15 1022.5 - -
30/09:00am 22.8 - - - - E 22 28 12 15 1022.6 - -
30/08:30am 23.0 - - - - ESE 19 22 10 12 1022.5 - -
30/08:00am 23.0 - - - - SE 19 22 10 12 1022.2 - -
30/07:30am 22.8 - - - - ESE 24 28 13 15 1021.8 - -
30/07:00am 22.8 - - - - E 22 28 12 15 1021.4 - -
30/06:30am 22.7 - - - - E 24 28 13 15 1021.0 - -
30/06:00am 22.6 - - - - E 28 33 15 18 1020.6 - -
30/05:30am 22.6 - - - - E 35 41 19 22 1020.0 - -
30/05:00am 22.5 - - - - E 28 33 15 18 1019.9 - -
30/04:30am 22.4 - - - - E 28 33 15 18 1019.8 - -
30/04:00am 22.4 - - - - E 28 32 15 17 1019.7 - -
30/03:30am 22.4 - - - - E 17 20 9 11 1019.9 - -
30/03:00am 22.5 - - - - E 20 26 11 14 1019.9 1019.9 -
30/02:30am 22.6 - - - - E 26 30 14 16 1020.0 - -
30/02:00am 22.3 - - - - ENE 28 32 15 17 1020.2 - -
30/01:30am 22.2 - - - - ENE 26 30 14 16 1020.5 - -
30/01:00am 22.3 - - - - E 24 28 13 15 1020.6 - -
30/12:30am 22.2 - - - - E 30 37 16 20 1020.9 - -
30/12:00am 22.5 - - - - E 20 24 11 13 1021.0 1021.0 -
 
Date/Time
EST
Temp
°C
App
Temp
°C
Dew
Point
Rel
Hum
%
Delta-T
°C
Wind Press
QNH
hPa
Press
MSL
hPa
Rain
since 9 am
mm
Dir
 
Spd
km/h
Gust
km/h
Spd
kts
Gust
kts
29/11:30pm 22.5 - - - - E 19 26 10 14 1020.9 - -
29/11:00pm 22.4 - - - - E 26 35 14 19 1020.8 - -
29/10:30pm 22.4 - - - - E 20 28 11 15 1020.9 - -
29/10:00pm 21.9 - - - - ESE 26 30 14 16 1020.9 - -
29/09:30pm 22.2 - - - - ESE 26 32 14 17 1021.2 - -
29/09:00pm 21.7 - - - - SE 24 28 13 15 1021.0 1021.0 -
29/08:30pm 21.8 - - - - ESE 24 30 13 16 1020.9 - -
29/08:00pm 21.7 - - - - SE 24 30 13 16 1021.0 - -
29/07:30pm 21.7 - - - - SE 26 30 14 16 1021.0 - -
29/07:00pm 21.4 - - - - SSE 28 32 15 17 1020.9 - -
29/06:30pm 21.5 - - - - SSE 28 30 15 16 1020.7 - -
29/06:00pm 21.6 - - - - SE 30 35 16 19 1020.5 1020.5 -
29/05:30pm 21.6 - - - - SE 32 37 17 20 1020.2 - -
29/05:00pm 21.7 - - - - SSE 24 28 13 15 1019.9 - -
29/04:30pm 22.0 - - - - SE 20 26 11 14 1019.7 - -
29/04:00pm 22.4 - - - - SE 20 24 11 13 1019.6 - -
29/03:30pm 22.3 - - - - ESE 19 22 10 12 1019.4 - -
29/03:00pm 22.3 - - - - SE 17 20 9 11 1019.4 1019.4 -
29/02:30pm 22.1 - - - - SSE 17 20 9 11 1019.5 - -
29/02:00pm 22.2 - - - - SE 13 17 7 9 1019.7 - -
29/01:30pm 22.1 - - - - SSE 13 20 7 11 1019.9 - -
29/01:00pm 22.1 - - - - SE 17 20 9 11 1020.2 - -
29/12:30pm 22.1 - - - - SE 15 19 8 10 1020.5 - -
29/12:00pm 22.2 - - - - ESE 17 20 9 11 1020.8 1020.8 -
29/11:30am 22.3 - - - - E 17 22 9 12 1021.2 - -
29/11:00am 22.1 - - - - E 22 26 12 14 1021.5 - -
29/10:30am 22.1 - - - - E 19 24 10 13 1021.8 - -
29/10:00am 22.0 - - - - ESE 20 24 11 13 1022.2 - -
29/09:30am 22.0 - - - - E 20 24 11 13 1022.4 - -
29/09:00am 22.0 - - - - E 20 26 11 14 1022.5 1022.5 -
29/08:30am 22.0 - - - - ESE 20 30 11 16 1022.4 - -
29/08:00am 21.9 - - - - SE 22 32 12 17 1022.2 - -
29/07:30am 22.0 - - - - ESE 22 35 12 19 1021.9 - -

Other Formats:

Comma delimited format used in spreadsheet applications
http://www.bom.gov.au/fwo/IDQ60801/IDQ60801.94393.axf

JavaScript Object Notation format (JSON) in row-major order
http://www.bom.gov.au/fwo/IDQ60801/IDQ60801.94393.json